Rechercher aéroport 
image banner adimage banner adimage banner ad
image banner ad

O24 - Lee Vining

Situé à Lee Vining, United States

ICAO - O24, IATA -

Données fournies par Airmate  

Information générale

Coordonnées: N37°57'28" W119°6'21"
Élévation : 6802 feet MSL.
Variation magnétique : 15° East
Voir autres Aéroports à California

Données opérationnelles

Special qualification required
Heure actuelle UTC:
Heure actuelle locale:
Météo à : KMMH - Mammoth Yosemite ( 44 km )
METAR: KMMH 251135Z AUTO 00000KT 10SM CLR 13/07 A3031 RMK AO2
TAF: KMMH 250536Z 2506/2606 35004KT P6SM BKN120 FM251500 14008KT P6SM VCSH BKN100 FM251800 11005KT P6SM VCTS BKN090CB TEMPO 2520/2524 VRB15G25KT 6SM -TSRA OVC080CB FM260000 27011KT P6SM BKN140 FM260300 32006KT P6SM BKN250
Voir NOTAMs / SUP AIP / TFR affectant cet aéroport [VIEW]
Fréquences de communication: [VIEW]

Pistes:

Identifiant RWYQFULongueur (ft)Largeur (ft)SurfaceLDA (ft)
15162°392060ASPH
33342°392060ASPH

Coordonnées de l'aéroport

Adresse: Lee Vining United States

Vue satellite de O24